Time;durP1;ratioP1;P1;durP2;ratioP2;P2;SDS_P1;SDS_P2;PMS_P1;PMS_P2;Temp;Humidity;BMP_temperature;BMP_pressure;BME280_temperature;BME280_humidity;BME280_pressure;Samples;Min_cycle;Max_cycle;Signal;HPM_P1;HPM_P2
2021/10/07 00:00:45;;;;;;;23.33;12.13;;;13.50;99.90;;;;;;4976439;28;20483;-47
2021/10/07 00:03:11;;;;;;;19.70;13.48;;;13.50;99.90;;;;;;4900652;28;20105;-51
2021/10/07 00:05:37;;;;;;;10.45;7.85;;;13.60;99.90;;;;;;4957802;28;20042;-51
2021/10/07 00:08:03;;;;;;;15.27;10.93;;;13.50;99.90;;;;;;4990957;28;20125;-50
2021/10/07 00:10:29;;;;;;;11.15;7.40;;;13.50;99.90;;;;;;4974104;28;20502;-50
2021/10/07 00:12:55;;;;;;;17.38;10.70;;;13.40;99.90;;;;;;5002631;28;20478;-48
2021/10/07 00:15:21;;;;;;;18.40;12.18;;;13.50;99.90;;;;;;4993764;28;20092;-48
2021/10/07 00:17:47;;;;;;;14.43;8.30;;;13.40;99.90;;;;;;5008792;28;20370;-53
2021/10/07 00:20:15;;;;;;;13.93;10.27;;;13.30;99.90;;;;;;5005486;28;20038;-54
2021/10/07 00:22:41;;;;;;;10.38;7.28;;;13.40;99.90;;;;;;4986712;28;20072;-51
2021/10/07 00:25:09;;;;;;;12.65;8.45;;;13.30;99.90;;;;;;5007127;28;20030;-51
2021/10/07 00:27:39;;;;;;;13.07;8.43;;;13.30;99.90;;;;;;4960025;28;20038;-49
2021/10/07 00:30:41;;;;;;;8.25;5.70;;;13.20;99.90;;;;;;5011409;28;20366;-50
2021/10/07 00:40:49;;;;;;;13.90;9.88;;;13.10;99.90;;;;;;5011131;28;20041;-51
2021/10/07 00:43:15;;;;;;;15.93;8.88;;;13.10;99.90;;;;;;5010639;28;20117;-50
2021/10/07 00:45:41;;;;;;;11.52;6.53;;;13.10;99.90;;;;;;5010972;28;20105;-49
2021/10/07 00:48:06;;;;;;;12.82;7.47;;;13.00;99.90;;;;;;4959435;28;20044;-49
2021/10/07 00:50:32;;;;;;;10.73;7.10;;;13.00;99.90;;;;;;5009751;28;20458;-49
2021/10/07 00:52:59;;;;;;;11.68;8.20;;;;;;;;;;5011366;28;20359;-53
2021/10/07 00:55:25;;;;;;;10.38;6.32;;;12.90;99.90;;;;;;5008107;28;20434;-49
2021/10/07 00:57:50;;;;;;;10.95;8.13;;;12.80;99.90;;;;;;4990279;28;20038;-49
2021/10/07 01:00:16;;;;;;;12.70;6.45;;;13.00;99.90;;;;;;5003748;28;20042;-52
2021/10/07 01:02:42;;;;;;;12.60;7.32;;;12.90;99.90;;;;;;5010799;28;20022;-52
2021/10/07 01:05:08;;;;;;;17.52;10.50;;;12.80;99.90;;;;;;4992435;28;20042;-48
2021/10/07 01:07:34;;;;;;;14.57;8.20;;;12.80;99.90;;;;;;4989085;28;20034;-51
2021/10/07 01:10:00;;;;;;;11.07;6.72;;;;;;;;;;4980531;28;20049;-50
2021/10/07 01:12:27;;;;;;;11.48;6.45;;;;;;;;;;4986193;28;20030;-51
2021/10/07 01:14:53;;;;;;;8.32;6.05;;;12.80;99.90;;;;;;5007748;28;20081;-51
2021/10/07 01:17:21;;;;;;;9.23;6.35;;;12.70;99.90;;;;;;5010748;28;20482;-54
2021/10/07 01:19:49;;;;;;;15.02;6.80;;;12.70;99.90;;;;;;5012183;28;20045;-50
2021/10/07 01:22:16;;;;;;;12.70;7.63;;;12.70;99.90;;;;;;5013292;28;20401;-50
2021/10/07 01:24:42;;;;;;;12.52;7.63;;;;;;;;;;5010751;28;20034;-48
2021/10/07 01:27:09;;;;;;;13.85;7.63;;;12.70;99.90;;;;;;5009500;28;20040;-48
2021/10/07 01:29:35;;;;;;;13.82;6.93;;;12.60;99.90;;;;;;4999988;28;20077;-49
2021/10/07 01:32:02;;;;;;;11.25;7.85;;;12.70;99.90;;;;;;5012447;28;20484;-51
2021/10/07 01:34:29;;;;;;;12.27;5.95;;;12.80;99.90;;;;;;4978939;28;20038;-50
2021/10/07 01:36:56;;;;;;;8.68;7.35;;;12.70;99.90;;;;;;5012599;28;20069;-48
2021/10/07 01:39:23;;;;;;;12.63;5.38;;;12.70;99.90;;;;;;5015249;28;20048;-50
2021/10/07 01:41:49;;;;;;;15.73;10.65;;;12.60;99.90;;;;;;5010892;28;20036;-49
2021/10/07 01:44:18;;;;;;;10.73;6.95;;;12.70;99.90;;;;;;5014168;28;20088;-47
2021/10/07 01:46:44;;;;;;;18.05;10.18;;;12.70;99.90;;;;;;5013783;28;20036;-51
2021/10/07 01:49:10;;;;;;;11.70;7.15;;;12.80;99.90;;;;;;5014291;28;20030;-52
2021/10/07 01:51:37;;;;;;;11.32;6.28;;;12.70;99.90;;;;;;5014107;28;20463;-50
2021/10/07 01:54:04;;;;;;;12.57;6.78;;;12.70;99.90;;;;;;5015762;28;20034;-51
2021/10/07 01:56:31;;;;;;;6.25;4.95;;;12.80;99.90;;;;;;5012735;28;20048;-51
2021/10/07 01:58:58;;;;;;;13.00;6.72;;;12.80;99.90;;;;;;5014092;28;20025;-51
2021/10/07 02:01:24;;;;;;;10.30;6.38;;;12.80;99.90;;;;;;5011327;28;20034;-50
2021/10/07 02:03:49;;;;;;;12.88;4.80;;;12.80;99.90;;;;;;5011103;28;20038;-49
2021/10/07 02:06:15;;;;;;;14.65;8.85;;;12.80;99.90;;;;;;4990673;28;20050;-51
2021/10/07 02:08:41;;;;;;;10.93;7.20;;;12.90;99.90;;;;;;5015601;28;20034;-50
2021/10/07 02:11:07;;;;;;;12.13;7.40;;;12.90;99.90;;;;;;5008372;28;20068;-50
2021/10/07 02:13:33;;;;;;;11.88;8.40;;;12.90;99.90;;;;;;5012605;28;20030;-51
2021/10/07 02:15:59;;;;;;;11.00;7.05;;;12.90;99.90;;;;;;5013583;28;20488;-51
2021/10/07 02:18:27;;;;;;;7.88;5.35;;;12.90;99.90;;;;;;5012931;28;20097;-48
2021/10/07 02:20:54;;;;;;;11.07;6.20;;;12.80;99.90;;;;;;5011291;28;20041;-51
2021/10/07 02:23:20;;;;;;;12.55;8.07;;;12.90;99.90;;;;;;4976038;28;20089;-51
2021/10/07 02:25:47;;;;;;;11.57;6.43;;;12.80;99.90;;;;;;4991929;28;20038;-51
2021/10/07 02:28:13;;;;;;;9.23;5.88;;;12.90;99.90;;;;;;4987202;28;20086;-47
2021/10/07 02:30:40;;;;;;;8.30;5.93;;;12.90;99.90;;;;;;4985746;28;20479;-49
2021/10/07 02:33:07;;;;;;;12.90;7.35;;;12.90;99.90;;;;;;4989739;28;20125;-51
2021/10/07 02:35:33;;;;;;;10.63;7.35;;;12.90;99.90;;;;;;4960021;28;20157;-52
2021/10/07 02:37:59;;;;;;;14.65;8.32;;;12.90;99.90;;;;;;4985001;28;20640;-49
2021/10/07 02:40:27;;;;;;;13.68;7.82;;;12.90;99.90;;;;;;4989222;28;20050;-51
2021/10/07 02:42:54;;;;;;;8.27;4.75;;;13.00;99.90;;;;;;4988364;28;20071;-48
2021/10/07 02:45:20;;;;;;;10.57;7.00;;;12.90;99.90;;;;;;4987157;28;20070;-48
2021/10/07 02:47:47;;;;;;;10.30;7.30;;;12.90;99.90;;;;;;4987116;28;20030;-49
2021/10/07 02:50:15;;;;;;;9.90;5.38;;;13.00;99.90;;;;;;4991417;28;20030;-50
2021/10/07 02:52:41;;;;;;;16.67;9.38;;;12.90;99.90;;;;;;4979702;28;20038;-51
2021/10/07 02:55:08;;;;;;;11.73;8.10;;;13.00;99.90;;;;;;5004119;28;20042;-49
2021/10/07 02:57:33;;;;;;;11.57;7.72;;;13.00;99.90;;;;;;5012690;28;20064;-48
2021/10/07 02:59:59;;;;;;;12.73;5.82;;;13.00;99.90;;;;;;4990523;28;20439;-49
2021/10/07 03:02:25;;;;;;;12.23;7.50;;;13.00;99.90;;;;;;5014573;28;20037;-48
2021/10/07 03:04:52;;;;;;;10.73;6.00;;;13.10;99.90;;;;;;4992732;28;20076;-54
2021/10/07 03:07:21;;;;;;;12.75;7.50;;;13.00;99.90;;;;;;5012178;28;20041;-54
2021/10/07 03:09:47;;;;;;;12.55;7.75;;;13.00;99.90;;;;;;5011449;28;20029;-52
2021/10/07 03:12:13;;;;;;;12.25;8.23;;;13.00;99.90;;;;;;5011859;28;20478;-51
2021/10/07 03:14:39;;;;;;;15.40;7.70;;;13.20;99.90;;;;;;4992906;28;20050;-50
2021/10/07 03:17:09;;;;;;;7.50;6.03;;;13.20;99.90;;;;;;4994232;28;20092;-49
2021/10/07 03:19:36;;;;;;;17.02;7.70;;;13.20;99.90;;;;;;5012288;28;20534;-49
2021/10/07 03:22:02;;;;;;;12.77;6.00;;;13.10;99.90;;;;;;5010408;28;20040;-50
2021/10/07 03:24:28;;;;;;;15.27;7.38;;;13.10;99.90;;;;;;4994827;28;20038;-49
2021/10/07 03:26:54;;;;;;;9.57;6.40;;;13.10;99.90;;;;;;5012206;28;20072;-50
2021/10/07 03:29:20;;;;;;;9.73;7.00;;;13.10;99.90;;;;;;4994661;28;20152;-53
2021/10/07 03:31:45;;;;;;;10.80;6.45;;;13.20;99.90;;;;;;5009940;28;20397;-49
2021/10/07 03:34:11;;;;;;;10.57;7.20;;;13.10;99.90;;;;;;5010396;28;20026;-54
2021/10/07 03:36:37;;;;;;;10.00;6.03;;;13.20;99.90;;;;;;5012017;28;20042;-50
2021/10/07 03:39:03;;;;;;;15.48;6.82;;;13.20;99.90;;;;;;5010813;28;20054;-49
2021/10/07 03:41:29;;;;;;;10.75;6.60;;;13.20;99.90;;;;;;5010412;28;20105;-49
2021/10/07 03:43:55;;;;;;;12.88;7.32;;;13.20;99.90;;;;;;4991043;28;20133;-55
2021/10/07 03:46:21;;;;;;;11.45;6.30;;;13.30;99.90;;;;;;5012593;28;20718;-52
2021/10/07 03:48:47;;;;;;;9.35;7.38;;;13.30;99.90;;;;;;5011621;28;20064;-50
2021/10/07 03:51:13;;;;;;;6.78;4.78;;;13.30;99.90;;;;;;4994924;28;20052;-55
2021/10/07 03:53:39;;;;;;;9.05;5.65;;;13.40;99.90;;;;;;4995048;28;20390;-50
2021/10/07 03:56:04;;;;;;;9.50;6.68;;;13.30;99.90;;;;;;5012727;28;20049;-49
2021/10/07 03:58:30;;;;;;;10.00;6.03;;;13.30;99.90;;;;;;5010664;28;20038;-50
2021/10/07 04:00:56;;;;;;;8.38;5.82;;;13.40;99.90;;;;;;5010757;28;20037;-48
2021/10/07 04:03:22;;;;;;;13.18;5.07;;;13.40;99.90;;;;;;4978905;28;20041;-50
2021/10/07 04:05:48;;;;;;;9.75;5.15;;;13.30;99.90;;;;;;5011543;28;20041;-49
2021/10/07 04:08:15;;;;;;;9.68;5.97;;;13.40;99.90;;;;;;5013298;28;20119;-49
2021/10/07 04:10:41;;;;;;;19.15;7.32;;;13.40;99.90;;;;;;5011033;28;20437;-51
2021/10/07 04:13:07;;;;;;;7.32;5.35;;;13.40;99.90;;;;;;5008759;28;20034;-53
2021/10/07 04:15:33;;;;;;;10.60;6.30;;;13.30;99.90;;;;;;5027846;28;20113;-54
2021/10/07 04:17:59;;;;;;;9.55;6.50;;;13.50;99.90;;;;;;5011603;28;20539;-53
2021/10/07 04:20:25;;;;;;;18.08;6.18;;;13.60;99.90;;;;;;5009957;28;20033;-53
2021/10/07 04:22:51;;;;;;;9.57;5.93;;;13.50;99.90;;;;;;4959263;28;20046;-49
2021/10/07 04:25:17;;;;;;;8.43;6.07;;;13.40;99.90;;;;;;5008659;28;20049;-49
2021/10/07 04:27:43;;;;;;;17.88;6.15;;;13.60;99.90;;;;;;5011007;28;20023;-52
2021/10/07 04:30:10;;;;;;;9.60;5.82;;;13.60;99.90;;;;;;5010507;28;20026;-51
2021/10/07 04:32:36;;;;;;;10.90;5.68;;;13.60;99.90;;;;;;5010900;28;20485;-49
2021/10/07 04:35:04;;;;;;;10.23;5.60;;;13.60;99.90;;;;;;5011328;28;20080;-48
2021/10/07 04:37:31;;;;;;;9.90;6.03;;;13.60;99.90;;;;;;5012890;28;20128;-53
2021/10/07 04:39:57;;;;;;;7.93;5.80;;;13.60;99.90;;;;;;4988297;28;20073;-48
2021/10/07 04:42:23;;;;;;;10.65;6.88;;;13.50;99.90;;;;;;5007359;28;20481;-53
2021/10/07 04:44:49;;;;;;;7.88;4.85;;;13.60;99.90;;;;;;5010853;28;20046;-49
2021/10/07 04:47:14;;;;;;;10.73;5.72;;;13.60;99.90;;;;;;5010531;28;20568;-50
2021/10/07 04:49:40;;;;;;;9.80;6.45;;;13.60;99.90;;;;;;5005767;28;20131;-54
2021/10/07 04:52:06;;;;;;;11.93;5.47;;;13.60;99.90;;;;;;5005257;28;20046;-51
2021/10/07 04:54:32;;;;;;;8.15;5.40;;;13.60;99.90;;;;;;4990990;28;20054;-49
2021/10/07 04:56:58;;;;;;;10.60;5.55;;;13.60;99.90;;;;;;4996126;28;20441;-50
2021/10/07 04:59:24;;;;;;;11.35;5.05;;;13.60;99.90;;;;;;5011683;28;20045;-48
2021/10/07 05:01:49;;;;;;;11.57;5.60;;;13.60;99.90;;;;;;5011389;28;20061;-49
2021/10/07 05:04:15;;;;;;;13.98;5.30;;;13.60;99.90;;;;;;5006099;28;20136;-51
2021/10/07 05:06:41;;;;;;;9.30;5.57;;;13.60;99.90;;;;;;4965782;28;20501;-51
2021/10/07 05:09:07;;;;;;;8.20;4.60;;;13.60;99.90;;;;;;4996406;28;20463;-51
2021/10/07 05:11:33;;;;;;;6.78;5.53;;;13.50;99.90;;;;;;4993303;28;20038;-50
2021/10/07 05:13:59;;;;;;;9.77;5.68;;;13.60;99.90;;;;;;5014579;28;20474;-51
2021/10/07 05:16:24;;;;;;;5.35;3.25;;;13.60;99.90;;;;;;5016642;28;20050;-52
2021/10/07 05:18:50;;;;;;;9.90;4.82;;;13.50;99.90;;;;;;4990119;28;20046;-46
2021/10/07 05:21:16;;;;;;;9.10;5.53;;;13.60;99.90;;;;;;4943791;28;20046;-52
2021/10/07 05:23:42;;;;;;;6.85;3.95;;;13.60;99.90;;;;;;4977048;28;20042;-51
2021/10/07 05:26:08;;;;;;;10.80;4.95;;;13.50;99.90;;;;;;4992566;28;20120;-49
2021/10/07 05:28:33;;;;;;;6.30;4.13;;;13.60;99.90;;;;;;4991253;28;20042;-50
2021/10/07 05:30:59;;;;;;;8.13;4.57;;;13.60;99.90;;;;;;4965004;28;20556;-50
2021/10/07 05:33:25;;;;;;;11.02;7.13;;;13.60;99.90;;;;;;4985535;28;20043;-52
2021/10/07 05:35:51;;;;;;;9.50;5.65;;;13.60;99.90;;;;;;4989509;28;20126;-49
2021/10/07 05:38:17;;;;;;;10.40;7.28;;;13.60;99.90;;;;;;4990024;28;20132;-51
2021/10/07 05:40:43;;;;;;;12.82;7.32;;;13.60;99.90;;;;;;4991923;28;20034;-51
2021/10/07 05:43:10;;;;;;;14.77;7.72;;;13.60;99.90;;;;;;4987383;28;20430;-48
2021/10/07 05:45:36;;;;;;;9.95;5.18;;;13.60;99.90;;;;;;4993044;28;20533;-52
2021/10/07 05:48:03;;;;;;;10.07;5.70;;;13.70;99.90;;;;;;4929798;28;20043;-52
2021/10/07 05:50:28;;;;;;;8.48;6.35;;;13.70;99.90;;;;;;4946588;28;20042;-49
2021/10/07 05:52:54;;;;;;;9.88;5.65;;;13.70;99.90;;;;;;4960351;28;20045;-51
2021/10/07 05:55:20;;;;;;;12.35;6.85;;;13.70;99.90;;;;;;5013942;28;20033;-49
2021/10/07 05:57:46;;;;;;;12.30;7.18;;;13.80;99.90;;;;;;5009565;28;20101;-51
2021/10/07 06:00:12;;;;;;;10.68;5.60;;;13.70;99.90;;;;;;5012841;28;20068;-49
2021/10/07 06:02:39;;;;;;;8.18;5.68;;;13.80;99.90;;;;;;5012540;28;20042;-51
2021/10/07 06:05:06;;;;;;;9.10;4.72;;;13.80;99.90;;;;;;5012295;28;20041;-52
2021/10/07 06:07:32;;;;;;;7.60;5.03;;;13.80;99.90;;;;;;4996017;28;20030;-50
2021/10/07 06:09:58;;;;;;;13.35;5.80;;;13.80;99.90;;;;;;5011115;28;20359;-51
2021/10/07 06:12:24;;;;;;;11.95;6.03;;;13.80;99.90;;;;;;4992961;28;20050;-49
2021/10/07 06:14:50;;;;;;;8.85;5.20;;;13.80;99.90;;;;;;4993878;28;20050;-50
2021/10/07 06:17:15;;;;;;;8.95;6.45;;;13.90;99.90;;;;;;4994414;28;20073;-49
2021/10/07 06:19:44;;;;;;;7.80;5.13;;;13.90;99.90;;;;;;5010609;28;20457;-47
2021/10/07 06:22:10;;;;;;;8.27;5.38;;;13.80;99.90;;;;;;5013393;28;20480;-52
2021/10/07 06:24:36;;;;;;;8.20;5.30;;;14.00;99.90;;;;;;5012735;28;20053;-49
2021/10/07 06:27:02;;;;;;;12.88;5.25;;;14.00;99.90;;;;;;5006568;28;20034;-51
2021/10/07 06:29:28;;;;;;;10.63;5.75;;;13.90;99.90;;;;;;5012178;28;20038;-50
2021/10/07 06:31:54;;;;;;;8.20;5.40;;;13.90;99.90;;;;;;5011074;28;20363;-51
2021/10/07 06:34:20;;;;;;;7.35;4.65;;;13.90;99.90;;;;;;4971888;28;20046;-52
2021/10/07 06:36:46;;;;;;;8.57;5.00;;;13.80;99.90;;;;;;5011571;28;20038;-49
2021/10/07 06:39:12;;;;;;;8.45;5.28;;;14.00;99.90;;;;;;5007331;28;20052;-50
2021/10/07 06:41:38;;;;;;;10.82;5.30;;;14.00;99.90;;;;;;5007761;28;20030;-50
2021/10/07 06:44:04;;;;;;;10.25;6.25;;;14.00;99.90;;;;;;5008855;28;20052;-52
2021/10/07 06:46:30;;;;;;;7.50;5.22;;;14.00;99.90;;;;;;5011427;28;20339;-54
2021/10/07 06:48:56;;;;;;;7.93;5.85;;;14.00;99.90;;;;;;5011578;28;20037;-53
2021/10/07 06:51:23;;;;;;;9.57;5.05;;;14.00;99.90;;;;;;4996091;28;20034;-49
2021/10/07 06:53:53;;;;;;;8.48;5.22;;;14.20;99.90;;;;;;5010896;28;20045;-52
2021/10/07 06:56:20;;;;;;;9.55;4.55;;;14.20;99.90;;;;;;5011859;28;20073;-51
2021/10/07 06:58:47;;;;;;;6.95;5.15;;;14.10;99.90;;;;;;4992498;28;20053;-52
2021/10/07 07:01:13;;;;;;;5.78;4.50;;;14.20;99.90;;;;;;5012345;28;20034;-51
2021/10/07 07:03:39;;;;;;;5.13;3.50;;;14.20;99.90;;;;;;5011426;28;20671;-53
2021/10/07 07:06:05;;;;;;;8.30;4.05;;;14.20;99.90;;;;;;5009435;28;20474;-50
2021/10/07 07:08:31;;;;;;;9.77;5.30;;;14.20;99.90;;;;;;5010873;28;20018;-50
2021/10/07 07:10:56;;;;;;;7.20;4.05;;;14.30;99.90;;;;;;5012250;28;20030;-54
2021/10/07 07:13:22;;;;;;;8.82;4.93;;;14.20;99.90;;;;;;5011217;28;20057;-49
2021/10/07 07:15:48;;;;;;;8.27;4.72;;;14.30;99.90;;;;;;5011444;28;20026;-50
2021/10/07 07:18:13;;;;;;;7.90;3.63;;;14.40;99.90;;;;;;4978043;28;20040;-48
2021/10/07 07:20:39;;;;;;;7.18;4.97;;;14.40;99.90;;;;;;5011357;28;20494;-49
2021/10/07 07:23:11;;;;;;;7.05;4.10;;;14.40;99.90;;;;;;4993366;28;20038;-49
2021/10/07 07:25:37;;;;;;;11.05;5.10;;;14.40;99.90;;;;;;5008289;28;20031;-48
2021/10/07 07:28:03;;;;;;;8.48;4.60;;;14.50;99.90;;;;;;5012390;28;20045;-51
2021/10/07 07:30:29;;;;;;;9.55;5.03;;;14.50;99.90;;;;;;4992488;28;20042;-54
2021/10/07 07:32:55;;;;;;;6.97;4.80;;;14.50;99.90;;;;;;5008357;28;20045;-53
2021/10/07 07:35:21;;;;;;;5.82;3.30;;;14.60;99.90;;;;;;4977683;28;20475;-49
2021/10/07 07:37:47;;;;;;;7.65;4.18;;;14.50;99.90;;;;;;5013393;28;20382;-51
2021/10/07 07:40:13;;;;;;;5.90;4.43;;;14.60;99.90;;;;;;5008826;28;20433;-48
2021/10/07 07:42:39;;;;;;;4.38;2.95;;;14.60;99.90;;;;;;5009816;28;20021;-49
2021/10/07 07:45:06;;;;;;;4.82;3.55;;;14.60;99.90;;;;;;5007888;28;20033;-52
2021/10/07 07:47:32;;;;;;;5.63;3.72;;;14.70;99.90;;;;;;5010770;28;20162;-51
2021/10/07 07:49:58;;;;;;;8.80;4.75;;;14.70;99.90;;;;;;5011354;28;20022;-49
2021/10/07 07:52:24;;;;;;;13.88;5.60;;;14.70;99.90;;;;;;5011072;28;20445;-50
2021/10/07 07:54:50;;;;;;;9.27;4.88;;;14.80;99.90;;;;;;5006857;28;20044;-47
2021/10/07 07:57:16;;;;;;;8.60;4.68;;;14.90;99.90;;;;;;5008789;28;21039;-53
2021/10/07 07:59:42;;;;;;;6.63;4.50;;;14.90;99.90;;;;;;5008801;28;20034;-51
2021/10/07 08:02:08;;;;;;;6.10;4.18;;;14.90;99.90;;;;;;4994001;28;20038;-50
2021/10/07 08:04:33;;;;;;;8.35;4.93;;;15.00;99.90;;;;;;5004835;28;20394;-49
2021/10/07 08:07:00;;;;;;;5.75;3.38;;;15.00;99.90;;;;;;5011298;28;20394;-48
2021/10/07 08:09:26;;;;;;;5.75;2.95;;;15.10;99.90;;;;;;5013208;28;20030;-48
2021/10/07 08:11:52;;;;;;;10.38;4.70;;;15.00;99.90;;;;;;5009659;28;20026;-50
2021/10/07 08:14:18;;;;;;;5.55;3.70;;;15.00;99.90;;;;;;4993655;28;20037;-48
2021/10/07 08:16:45;;;;;;;10.20;4.63;;;14.90;99.90;;;;;;4961086;28;20075;-48
2021/10/07 08:19:11;;;;;;;8.27;4.45;;;15.10;99.90;;;;;;5012418;28;20041;-49
2021/10/07 08:21:41;;;;;;;8.43;4.80;;;15.10;99.90;;;;;;5009497;28;20022;-48
2021/10/07 08:24:09;;;;;;;7.80;5.32;;;15.10;99.90;;;;;;4994873;28;20038;-49
2021/10/07 08:26:35;;;;;;;9.18;4.95;;;15.10;99.90;;;;;;4991664;28;20510;-50
2021/10/07 08:29:01;;;;;;;9.32;6.22;;;15.20;99.90;;;;;;5011490;28;20125;-48
2021/10/07 08:31:27;;;;;;;9.50;5.18;;;15.20;99.90;;;;;;4994126;28;20141;-48
2021/10/07 08:33:53;;;;;;;9.75;5.93;;;15.20;99.90;;;;;;4987804;28;20069;-48
2021/10/07 08:36:19;;;;;;;7.43;5.18;;;15.20;99.90;;;;;;5027280;28;20046;-48
2021/10/07 08:38:45;;;;;;;11.13;5.38;;;15.20;99.90;;;;;;5002553;28;20045;-51
2021/10/07 08:41:12;;;;;;;10.95;5.70;;;15.30;99.90;;;;;;4990056;28;20483;-51
2021/10/07 08:43:40;;;;;;;9.80;5.20;;;15.30;99.90;;;;;;5003540;28;20480;-49
2021/10/07 08:46:11;;;;;;;8.57;4.65;;;15.40;99.90;;;;;;5010915;28;20030;-52
2021/10/07 08:48:37;;;;;;;7.28;4.47;;;15.50;99.90;;;;;;5021047;28;20066;-51
2021/10/07 08:51:03;;;;;;;10.48;5.55;;;15.60;99.90;;;;;;5013803;28;20839;-50
2021/10/07 08:53:29;;;;;;;6.88;3.95;;;15.60;99.90;;;;;;5011739;28;20113;-50
2021/10/07 08:55:55;;;;;;;6.78;4.22;;;15.50;99.90;;;;;;5014154;28;20041;-50
2021/10/07 08:58:21;;;;;;;4.90;3.17;;;15.70;99.90;;;;;;5011658;28;20030;-51
2021/10/07 09:00:46;;;;;;;8.43;3.95;;;15.50;99.90;;;;;;5010186;28;20088;-49
2021/10/07 09:03:19;;;;;;;10.73;4.97;;;15.60;99.90;;;;;;5016122;28;20108;-51
2021/10/07 09:05:46;;;;;;;5.13;3.80;;;15.70;99.90;;;;;;4990799;28;20027;-49
2021/10/07 09:08:14;;;;;;;7.75;2.97;;;15.80;99.90;;;;;;4976276;28;20149;-51
2021/10/07 09:10:44;;;;;;;7.47;3.78;;;15.60;99.90;;;;;;4993193;28;20041;-50
2021/10/07 09:13:22;;;;;;;4.95;3.33;;;15.60;99.90;;;;;;4988942;28;20065;-50
2021/10/07 09:15:50;;;;;;;7.88;3.60;;;15.70;99.90;;;;;;4985610;28;20050;-49
2021/10/07 09:18:18;;;;;;;8.25;3.47;;;15.70;99.90;;;;;;4985132;28;20500;-51
2021/10/07 09:20:49;;;;;;;4.65;2.83;;;15.80;99.90;;;;;;4967723;28;20053;-50
2021/10/07 09:23:21;;;;;;;8.45;3.28;;;15.70;99.90;;;;;;4940249;28;20035;-51
2021/10/07 09:25:54;;;;;;;7.53;4.00;;;15.70;99.90;;;;;;4957099;28;20035;-48
2021/10/07 09:28:20;;;;;;;7.25;3.30;;;15.80;99.90;;;;;;4971289;28;20031;-49
2021/10/07 09:30:46;;;;;;;12.60;2.97;;;15.70;99.90;;;;;;4974242;28;20031;-50
2021/10/07 09:33:12;;;;;;;3.80;2.40;;;15.50;99.90;;;;;;4973959;28;20027;-49
2021/10/07 09:35:37;;;;;;;6.32;3.70;;;15.50;99.90;;;;;;4957625;28;20054;-50
2021/10/07 09:38:05;;;;;;;8.98;4.50;;;15.70;99.90;;;;;;4957053;28;20124;-51
2021/10/07 09:40:32;;;;;;;12.07;5.15;;;15.80;99.90;;;;;;4973590;28;20043;-48
2021/10/07 09:43:01;;;;;;;3.35;2.33;;;15.80;99.90;;;;;;4973719;28;20035;-50
2021/10/07 09:45:35;;;;;;;8.85;3.63;;;15.70;99.90;;;;;;4973639;28;20173;-48
2021/10/07 09:48:06;;;;;;;6.93;3.15;;;15.60;99.90;;;;;;4972739;28;20027;-50
2021/10/07 09:50:37;;;;;;;6.13;4.00;;;15.60;99.90;;;;;;4971583;28;20043;-51
2021/10/07 09:53:08;;;;;;;6.80;3.50;;;15.50;99.90;;;;;;5012118;28;20029;-48
2021/10/07 09:55:40;;;;;;;7.22;3.58;;;15.40;99.90;;;;;;5013224;28;20065;-50
2021/10/07 09:58:26;;;;;;;;;;;15.50;99.90;;;;;;4978319;28;20030;-48
2021/10/07 10:00:56;;;;;;;10.68;3.72;;;15.50;99.90;;;;;;5007661;28;19914;-50
2021/10/07 10:03:23;;;;;;;6.65;4.00;;;15.40;99.90;;;;;;5011328;28;20113;-49
2021/10/07 10:05:51;;;;;;;6.10;3.78;;;15.40;99.90;;;;;;5013664;28;20025;-51
2021/10/07 10:08:20;;;;;;;8.35;3.50;;;15.30;99.90;;;;;;5027221;28;20069;-51
2021/10/07 10:10:48;;;;;;;7.22;4.00;;;15.20;99.90;;;;;;5014268;28;20070;-51
2021/10/07 10:13:15;;;;;;;5.90;2.90;;;15.20;99.90;;;;;;5014194;28;20022;-50
2021/10/07 10:15:42;;;;;;;6.15;3.70;;;15.20;99.90;;;;;;4957431;28;20039;-51
2021/10/07 10:18:12;;;;;;;7.00;3.90;;;15.20;99.90;;;;;;4983916;28;20061;-50
2021/10/07 10:20:42;;;;;;;9.25;4.57;;;15.20;99.90;;;;;;4981920;28;20062;-48
2021/10/07 10:23:11;;;;;;;5.93;3.00;;;15.10;99.90;;;;;;4945720;28;20077;-48
2021/10/07 10:25:56;;;;;;;8.98;3.83;;;15.10;99.90;;;;;;4981362;28;20039;-50
2021/10/07 10:28:52;;;;;;;6.50;3.03;;;15.10;99.90;;;;;;4973492;28;20046;-51
2021/10/07 10:31:38;;;;;;;6.75;3.67;;;15.10;99.90;;;;;;4991401;28;20042;-50
2021/10/07 10:34:09;;;;;;;5.43;2.45;;;15.10;99.90;;;;;;4988981;28;20041;-48
2021/10/07 10:36:37;;;;;;;10.02;3.53;;;15.20;99.90;;;;;;4971623;28;20046;-51
2021/10/07 10:39:06;;;;;;;7.13;3.63;;;15.20;99.90;;;;;;4976549;28;20555;-49
2021/10/07 10:41:56;;;;;;;5.50;3.33;;;15.30;99.90;;;;;;4953503;28;20117;-47
2021/10/07 10:44:27;;;;;;;5.03;2.72;;;15.30;99.90;;;;;;4986965;28;20023;-49
2021/10/07 10:47:23;;;;;;;5.80;3.50;;;15.30;99.90;;;;;;4996702;28;20088;-51
2021/10/07 10:49:51;;;;;;;8.18;3.55;;;15.30;99.90;;;;;;4947343;28;20031;-50
2021/10/07 10:52:19;;;;;;;6.70;3.50;;;15.40;99.90;;;;;;4955729;28;20418;-50
2021/10/07 10:54:47;;;;;;;3.75;2.42;;;15.50;99.90;;;;;;4965393;28;20034;-49
2021/10/07 10:57:44;;;;;;;6.65;3.55;;;15.50;99.90;;;;;;4968574;28;20462;-50
2021/10/07 11:00:14;;;;;;;9.65;3.90;;;15.70;99.90;;;;;;4969597;28;20072;-50
2021/10/07 11:02:47;;;;;;;9.90;3.47;;;15.80;99.90;;;;;;4971374;28;20038;-50
2021/10/07 11:05:28;;;;;;;7.50;3.35;;;15.90;99.90;;;;;;4972256;28;20054;-51
2021/10/07 11:08:11;;;;;;;6.13;2.70;;;15.90;99.90;;;;;;4968370;28;20367;-51
2021/10/07 11:10:39;;;;;;;5.85;3.03;;;15.90;99.90;;;;;;4969514;28;20039;-50
2021/10/07 11:13:11;;;;;;;10.10;3.65;;;16.00;99.90;;;;;;4967833;28;20030;-48
2021/10/07 11:15:37;;;;;;;8.30;3.22;;;16.10;99.90;;;;;;5008734;28;20065;-48
2021/10/07 11:18:03;;;;;;;7.10;3.65;;;16.20;99.90;;;;;;5014230;28;20038;-48
2021/10/07 11:20:32;;;;;;;9.10;3.33;;;16.20;99.90;;;;;;4960864;28;20359;-48
2021/10/07 11:22:57;;;;;;;7.40;2.63;;;16.30;99.90;;;;;;5008901;28;20083;-50
2021/10/07 11:25:23;;;;;;;7.38;3.33;;;16.10;99.90;;;;;;5012999;28;20018;-49
2021/10/07 11:27:49;;;;;;;8.55;3.25;;;16.10;99.90;;;;;;4982477;28;20037;-50
2021/10/07 11:30:19;;;;;;;5.28;3.15;;;16.10;99.90;;;;;;4976741;28;20478;-46
2021/10/07 11:32:46;;;;;;;7.28;4.22;;;16.00;99.90;;;;;;4967855;28;20057;-48
2021/10/07 11:35:14;;;;;;;7.45;2.85;;;15.90;99.90;;;;;;4990087;28;20038;-50
2021/10/07 11:37:52;;;;;;;6.38;3.03;;;15.90;99.90;;;;;;4991050;28;20057;-50
2021/10/07 11:40:21;;;;;;;6.78;3.10;;;16.00;99.90;;;;;;4989271;28;20038;-47
2021/10/07 11:42:48;;;;;;;6.32;3.25;;;15.90;99.90;;;;;;4990889;28;20039;-49
2021/10/07 11:45:20;;;;;;;7.78;2.72;;;15.90;99.90;;;;;;4986633;28;20463;-49
2021/10/07 11:47:46;;;;;;;14.60;4.03;;;15.80;99.90;;;;;;4983510;28;20539;-48
2021/10/07 11:50:14;;;;;;;7.90;3.70;;;15.80;99.90;;;;;;4971417;28;20053;-50
2021/10/07 11:52:40;;;;;;;8.40;3.78;;;15.80;99.90;;;;;;4971360;28;20098;-48
2021/10/07 11:55:06;;;;;;;6.90;3.28;;;15.90;99.90;;;;;;4987975;28;20687;-48
2021/10/07 11:57:32;;;;;;;9.27;3.45;;;15.80;99.90;;;;;;4982722;28;20118;-49
2021/10/07 11:59:58;;;;;;;6.68;2.80;;;15.80;99.90;;;;;;4989585;28;20053;-47
2021/10/07 12:02:24;;;;;;;7.15;2.47;;;15.80;99.90;;;;;;4982692;28;20031;-49
2021/10/07 12:04:50;;;;;;;10.35;3.53;;;15.70;99.90;;;;;;4963100;28;20425;-50
2021/10/07 12:07:16;;;;;;;9.38;2.70;;;15.80;99.90;;;;;;4977859;28;20184;-48
2021/10/07 12:09:42;;;;;;;5.72;2.67;;;15.60;99.90;;;;;;5010399;28;20598;-50
2021/10/07 12:12:09;;;;;;;5.40;2.47;;;15.50;99.90;;;;;;5007675;28;20033;-48
2021/10/07 12:14:35;;;;;;;8.30;3.13;;;15.30;99.90;;;;;;5006861;28;20065;-49
2021/10/07 12:17:01;;;;;;;7.32;2.47;;;15.40;99.90;;;;;;5010453;28;20119;-48
2021/10/07 12:19:27;;;;;;;6.88;3.20;;;15.30;99.90;;;;;;5010734;28;20030;-51
2021/10/07 12:22:02;;;;;;;16.77;5.35;;;15.30;99.90;;;;;;5008693;28;20069;-50
2021/10/07 12:24:30;;;;;;;10.02;2.92;;;15.30;99.90;;;;;;5005858;28;20493;-48
2021/10/07 12:26:59;;;;;;;6.40;2.97;;;15.20;99.90;;;;;;5010182;28;20141;-49
2021/10/07 12:29:32;;;;;;;12.25;3.67;;;15.10;99.90;;;;;;5009929;28;20375;-51
2021/10/07 12:32:05;;;;;;;12.55;3.75;;;15.10;99.90;;;;;;5006875;28;20037;-52
2021/10/07 12:34:39;;;;;;;10.25;4.53;;;15.00;99.90;;;;;;5008232;28;20056;-52
2021/10/07 12:37:10;;;;;;;8.07;3.97;;;15.00;99.90;;;;;;5006253;28;20113;-50
2021/10/07 12:39:40;;;;;;;8.93;3.47;;;14.80;99.90;;;;;;5009543;28;20119;-50
2021/10/07 12:42:11;;;;;;;10.85;3.83;;;14.70;99.90;;;;;;5007493;28;20489;-50
2021/10/07 12:44:43;;;;;;;10.27;4.20;;;14.60;99.90;;;;;;5002733;28;20029;-49
2021/10/07 12:47:15;;;;;;;9.55;3.20;;;14.60;99.90;;;;;;5009347;28;20030;-51
2021/10/07 12:49:44;;;;;;;17.45;6.63;;;14.30;99.90;;;;;;5010328;28;20037;-48
2021/10/07 12:52:25;;;;;;;18.58;4.85;;;14.50;99.90;;;;;;5006946;28;20030;-48